createdAt,value
2023-04-13T00:01:28.935Z,4.13
2023-04-13T00:06:30.484Z,5.10
2023-04-13T00:11:32.020Z,2.22
2023-04-13T00:16:33.700Z,2.33
2023-04-13T00:21:35.307Z,2.35
2023-04-13T00:26:36.783Z,2.47
2023-04-13T00:31:39.829Z,3.22
2023-04-13T00:36:41.945Z,3.05
2023-04-13T00:41:43.398Z,4.72
2023-04-13T00:46:46.462Z,7.88
2023-04-13T00:51:48.662Z,2.58
2023-04-13T00:56:51.443Z,8.57
2023-04-13T01:01:56.620Z,4.45
2023-04-13T01:07:11.716Z,4.65
2023-04-13T01:12:25.984Z,2.60
2023-04-13T01:17:31.132Z,4.45
2023-04-13T01:22:35.845Z,2.78
2023-04-13T01:28:19.230Z,4.07
2023-04-13T01:33:21.781Z,4.72
2023-04-13T01:38:26.849Z,3.13
2023-04-13T01:43:28.795Z,4.47
2023-04-13T01:48:48.904Z,3.15
2023-04-13T01:54:11.296Z,5.18
2023-04-13T01:59:13.289Z,2.50
2023-04-13T02:04:15.573Z,2.95
2023-04-13T02:09:17.971Z,3.47
2023-04-13T02:14:19.436Z,1.98
2023-04-13T02:19:21.852Z,5.03
2023-04-13T02:24:23.398Z,2.67
2023-04-13T02:29:24.862Z,3.42
2023-04-13T02:34:26.431Z,4.93
2023-04-13T02:39:28.618Z,2.17
2023-04-13T02:44:30.258Z,2.58
2023-04-13T02:49:31.716Z,4.70
2023-04-13T02:54:33.223Z,8.57
2023-04-13T02:59:34.735Z,5.55
2023-04-13T03:04:36.321Z,7.05
2023-04-13T03:09:38.096Z,7.60
2023-04-13T03:14:39.547Z,7.60
2023-04-13T03:19:41.926Z,4.30
2023-04-13T03:24:43.463Z,4.97
2023-04-13T03:29:44.957Z,6.15
2023-04-13T03:34:46.479Z,9.13
2023-04-13T03:39:47.958Z,9.13
2023-04-13T03:44:49.438Z,7.63
2023-04-13T03:49:51.006Z,11.15
2023-04-13T03:54:52.711Z,4.95
2023-04-13T03:59:54.299Z,7.32
2023-04-13T04:04:56.084Z,9.20
2023-04-13T04:09:57.603Z,10.40
2023-04-13T04:14:59.059Z,11.40
2023-04-13T04:20:00.968Z,11.07
2023-04-13T04:25:02.571Z,10.23
2023-04-13T04:30:10.742Z,12.90
2023-04-13T04:35:12.428Z,10.48
2023-04-13T04:40:14.128Z,17.52
2023-04-13T04:45:16.690Z,11.40
2023-04-13T04:50:18.254Z,9.00
2023-04-13T04:55:19.790Z,10.20
2023-04-13T05:00:21.908Z,16.13
2023-04-13T05:05:24.958Z,11.57
2023-04-13T05:10:28.338Z,12.25
2023-04-13T05:15:29.914Z,16.02
2023-04-13T05:20:34.542Z,13.57
2023-04-13T05:25:36.672Z,11.68
2023-04-13T05:30:38.190Z,10.07
2023-04-13T05:35:40.300Z,11.68
2023-04-13T05:40:41.848Z,13.07
2023-04-13T05:45:43.377Z,15.35
2023-04-13T05:50:44.937Z,10.88
2023-04-13T05:55:48.218Z,11.80
2023-04-13T06:00:50.708Z,11.70
2023-04-13T06:05:52.653Z,11.55
2023-04-13T06:10:54.200Z,8.57
2023-04-13T06:15:55.714Z,7.97
2023-04-13T06:20:58.669Z,9.57
2023-04-13T06:26:00.271Z,13.80
2023-04-13T06:31:01.873Z,7.47
2023-04-13T06:36:03.604Z,6.97
2023-04-13T06:41:05.528Z,8.60
2023-04-13T06:46:07.866Z,9.52
2023-04-13T06:51:09.374Z,9.07
2023-04-13T06:56:10.990Z,11.05
2023-04-13T07:01:12.685Z,10.05
2023-04-13T07:06:14.566Z,9.60
2023-04-13T07:11:16.309Z,10.38
2023-04-13T07:16:17.963Z,7.78
2023-04-13T07:21:19.475Z,6.43
2023-04-13T07:26:21.030Z,7.18
2023-04-13T07:31:23.660Z,8.88
2023-04-13T07:36:25.207Z,7.68
2023-04-13T07:41:26.862Z,6.68
2023-04-13T07:46:28.418Z,9.52
2023-04-13T07:51:33.460Z,10.60
2023-04-13T07:56:36.318Z,13.40
2023-04-13T08:01:38.003Z,9.32
2023-04-13T08:06:39.555Z,8.77
2023-04-13T08:11:42.969Z,11.55
2023-04-13T08:16:44.658Z,10.95
2023-04-13T08:21:46.584Z,18.92
2023-04-13T08:26:48.146Z,19.90
2023-04-13T08:31:50.502Z,18.98
2023-04-13T08:36:52.651Z,13.80
2023-04-13T08:41:54.945Z,20.10
2023-04-13T08:46:56.625Z,22.45
2023-04-13T08:52:00.043Z,19.77
2023-04-13T08:57:02.728Z,20.83
2023-04-13T09:02:06.766Z,20.20
2023-04-13T09:07:13.025Z,19.58
2023-04-13T09:12:15.071Z,25.42
2023-04-13T09:17:27.969Z,15.98
2023-04-13T09:22:29.495Z,18.88
2023-04-13T09:27:31.229Z,20.40
2023-04-13T09:32:32.834Z,17.00
2023-04-13T09:37:36.744Z,23.63
2023-04-13T09:42:41.269Z,23.83
2023-04-13T09:47:42.942Z,23.50
2023-04-13T09:52:48.026Z,28.60
2023-04-13T09:57:49.533Z,20.45
2023-04-13T10:02:52.631Z,13.95
2023-04-13T10:07:56.236Z,18.52
2023-04-13T10:13:01.601Z,16.50
2023-04-13T10:18:06.296Z,19.35
2023-04-13T10:23:08.215Z,19.33
2023-04-13T10:28:09.699Z,15.10
2023-04-13T10:33:11.489Z,18.92
2023-04-13T10:38:12.969Z,16.00
2023-04-13T10:43:31.747Z,21.23
2023-04-13T10:48:33.549Z,13.65
2023-04-13T10:53:35.342Z,14.75
2023-04-13T10:58:36.877Z,14.63
2023-04-13T11:03:39.303Z,15.93
2023-04-13T11:08:48.442Z,16.33
2023-04-13T11:13:50.229Z,20.35
2023-04-13T11:19:02.630Z,18.33
2023-04-13T11:24:04.750Z,12.82
2023-04-13T11:29:06.331Z,18.40
2023-04-13T11:34:11.391Z,14.98
2023-04-13T11:39:14.755Z,16.55
2023-04-13T11:44:17.210Z,13.57
2023-04-13T11:49:18.885Z,14.18
2023-04-13T11:54:20.668Z,16.38
2023-04-13T11:59:26.119Z,11.45
2023-04-13T12:04:28.005Z,16.20
2023-04-13T12:09:54.542Z,19.80
2023-04-13T12:15:10.767Z,14.50
2023-04-13T12:20:16.293Z,18.83
2023-04-13T12:25:20.577Z,15.05
2023-04-13T12:30:23.227Z,20.02
2023-04-13T12:35:24.798Z,11.15
2023-04-13T12:40:26.436Z,15.75
2023-04-13T12:45:28.493Z,14.80
2023-04-13T12:50:33.190Z,15.27
2023-04-13T12:55:35.206Z,11.90
2023-04-13T13:00:36.817Z,9.18
2023-04-13T13:05:38.446Z,20.52
2023-04-13T13:10:41.084Z,17.67
2023-04-13T13:15:42.603Z,12.13
2023-04-13T13:20:44.401Z,11.70
2023-04-13T13:26:04.108Z,7.88
2023-04-13T13:31:08.405Z,8.93
2023-04-13T13:36:10.068Z,17.27
2023-04-13T13:41:11.606Z,12.43
2023-04-13T13:46:14.404Z,15.23
2023-04-13T13:51:16.061Z,13.60
2023-04-13T13:56:17.658Z,17.17
2023-04-13T14:01:19.252Z,15.85
2023-04-13T14:06:21.103Z,12.90
2023-04-13T14:11:22.855Z,14.30
2023-04-13T14:16:24.358Z,15.98
2023-04-13T14:21:26.544Z,13.73
2023-04-13T14:26:28.038Z,15.90
2023-04-13T14:31:29.908Z,14.45
2023-04-13T14:36:32.201Z,17.88
2023-04-13T14:41:33.706Z,18.50
2023-04-13T14:46:35.245Z,18.85
2023-04-13T14:51:37.341Z,15.10
2023-04-13T14:56:38.889Z,17.52
2023-04-13T15:01:41.135Z,16.02
2023-04-13T15:06:42.777Z,15.90
2023-04-13T15:11:44.349Z,13.88
2023-04-13T15:16:46.236Z,16.98
2023-04-13T15:21:47.854Z,18.83
2023-04-13T15:26:49.409Z,17.80
2023-04-13T15:31:51.716Z,17.48
2023-04-13T15:36:53.416Z,17.17
2023-04-13T15:41:55.209Z,11.77
2023-04-13T15:46:56.757Z,13.68
2023-04-13T15:51:58.226Z,12.05
2023-04-13T15:56:59.809Z,14.25
2023-04-13T16:02:01.957Z,16.17
2023-04-13T16:07:12.914Z,16.05
2023-04-13T16:12:15.493Z,13.30
2023-04-13T16:17:16.956Z,12.07
2023-04-13T16:22:18.912Z,9.85
2023-04-13T16:27:20.400Z,14.88
2023-04-13T16:32:21.867Z,14.45
2023-04-13T16:37:23.461Z,20.05
2023-04-13T16:42:25.004Z,19.15
2023-04-13T16:47:27.209Z,14.52
2023-04-13T16:52:29.095Z,15.00
2023-04-13T16:57:30.720Z,14.30
2023-04-13T17:02:37.731Z,13.13
2023-04-13T17:07:41.204Z,20.80
2023-04-13T17:12:42.674Z,20.85
2023-04-13T17:17:44.352Z,13.98
2023-04-13T17:22:46.035Z,15.30
2023-04-13T17:27:47.544Z,21.30
2023-04-13T17:32:49.154Z,19.67
2023-04-13T17:37:50.739Z,14.95
2023-04-13T17:42:52.248Z,17.75
2023-04-13T17:47:53.711Z,18.15
2023-04-13T17:52:55.480Z,17.33
2023-04-13T17:57:57.036Z,19.85
2023-04-13T18:02:58.798Z,10.18
2023-04-13T18:08:00.487Z,14.25
2023-04-13T18:13:02.013Z,17.55
2023-04-13T18:18:03.694Z,16.35
2023-04-13T18:23:05.249Z,17.10
2023-04-13T18:28:06.907Z,18.10
2023-04-13T18:33:09.250Z,18.83
2023-04-13T18:38:10.976Z,19.40
2023-04-13T18:43:12.502Z,23.80
2023-04-13T18:48:14.062Z,21.63
2023-04-13T18:53:15.910Z,18.23
2023-04-13T18:58:19.583Z,17.30
2023-04-13T19:03:21.361Z,10.93
2023-04-13T19:08:22.976Z,17.92
2023-04-13T19:13:24.525Z,14.45
2023-04-13T19:18:26.107Z,12.27
2023-04-13T19:23:27.583Z,12.07
2023-04-13T19:28:29.104Z,17.60
2023-04-13T19:33:30.688Z,20.38
2023-04-13T19:38:32.628Z,19.40
2023-04-13T19:43:34.118Z,11.95
2023-04-13T19:48:36.196Z,17.80
2023-04-13T19:53:38.371Z,15.20
2023-04-13T19:58:40.094Z,23.88
2023-04-13T20:03:42.839Z,15.18
2023-04-13T20:08:45.481Z,14.77
2023-04-13T20:13:47.017Z,10.68
2023-04-13T20:18:49.731Z,19.52
2023-04-13T20:23:51.187Z,23.67
2023-04-13T20:28:59.955Z,19.58
2023-04-13T20:34:03.230Z,19.05
2023-04-13T20:39:04.850Z,19.67
2023-04-13T20:44:09.797Z,17.88
2023-04-13T20:49:11.865Z,20.33
2023-04-13T20:54:13.422Z,20.10
2023-04-13T20:59:16.089Z,18.67
2023-04-13T21:04:17.698Z,15.57
2023-04-13T21:09:19.351Z,16.55
2023-04-13T21:14:23.333Z,19.40
2023-04-13T21:19:27.500Z,13.85
2023-04-13T21:24:28.999Z,20.73
2023-04-13T21:29:30.482Z,18.88
2023-04-13T21:34:32.395Z,25.85
2023-04-13T21:39:34.223Z,23.58
2023-04-13T21:44:35.881Z,19.60
2023-04-13T21:49:37.458Z,18.67
2023-04-13T21:54:38.961Z,16.67
2023-04-13T21:59:40.665Z,14.50
2023-04-13T22:04:42.155Z,16.48
2023-04-13T22:09:43.711Z,14.05
2023-04-13T22:14:45.258Z,18.33
2023-04-13T22:19:46.766Z,14.43
2023-04-13T22:24:51.237Z,14.02
2023-04-13T22:29:54.857Z,19.33
2023-04-13T22:34:57.066Z,12.23
2023-04-13T22:40:00.783Z,18.13
2023-04-13T22:45:02.398Z,11.85
2023-04-13T22:50:04.036Z,10.27
2023-04-13T22:55:05.884Z,9.93
2023-04-13T23:00:07.822Z,10.05
2023-04-13T23:05:09.572Z,15.50
2023-04-13T23:10:11.241Z,14.82
2023-04-13T23:15:13.774Z,16.00
2023-04-13T23:20:15.399Z,16.55
2023-04-13T23:25:16.974Z,10.77
2023-04-13T23:30:18.595Z,11.73
2023-04-13T23:35:20.207Z,16.30
2023-04-13T23:40:21.838Z,17.98
2023-04-13T23:45:24.824Z,13.05
2023-04-13T23:50:26.509Z,18.83
2023-04-13T23:55:28.009Z,17.48
